sensor_id;sensor_type;location;lat;lon;timestamp;temperature;humidity
21104;DHT22;10710;53.398;-1.514;2023-05-07T06:56:27;16.50;99.90
21104;DHT22;10710;53.398;-1.514;2023-05-07T06:59:11;16.60;99.90
21104;DHT22;10710;53.398;-1.514;2023-05-07T07:01:55;16.90;99.90
21104;DHT22;10710;53.398;-1.514;2023-05-07T07:04:39;17.00;99.90
21104;DHT22;10710;53.398;-1.514;2023-05-07T07:07:24;16.80;99.90
21104;DHT22;10710;53.398;-1.514;2023-05-07T07:10:09;17.10;99.90
21104;DHT22;10710;53.398;-1.514;2023-05-07T07:12:53;17.00;99.90
21104;DHT22;10710;53.398;-1.514;2023-05-07T07:15:38;17.10;99.90
21104;DHT22;10710;53.398;-1.514;2023-05-07T07:18:23;17.30;99.90
21104;DHT22;10710;53.398;-1.514;2023-05-07T07:21:07;17.30;99.90
21104;DHT22;10710;53.398;-1.514;2023-05-07T07:23:52;17.40;99.90
21104;DHT22;10710;53.398;-1.514;2023-05-07T07:26:36;17.50;99.90
21104;DHT22;10710;53.398;-1.514;2023-05-07T07:29:21;17.60;99.90
21104;DHT22;10710;53.398;-1.514;2023-05-07T07:32:05;17.50;99.90
21104;DHT22;10710;53.398;-1.514;2023-05-07T07:34:50;17.50;99.90
21104;DHT22;10710;53.398;-1.514;2023-05-07T07:37:34;17.30;99.90
21104;DHT22;10710;53.398;-1.514;2023-05-07T07:40:18;17.50;99.90
21104;DHT22;10710;53.398;-1.514;2023-05-07T07:43:03;17.70;99.90
21104;DHT22;10710;53.398;-1.514;2023-05-07T07:45:47;17.90;99.90
21104;DHT22;10710;53.398;-1.514;2023-05-07T07:48:31;18.10;99.90
21104;DHT22;10710;53.398;-1.514;2023-05-07T07:51:15;18.00;99.90
21104;DHT22;10710;53.398;-1.514;2023-05-07T07:54:00;17.90;99.90
21104;DHT22;10710;53.398;-1.514;2023-05-07T07:56:46;17.50;99.90
21104;DHT22;10710;53.398;-1.514;2023-05-07T07:59:30;17.50;99.90
21104;DHT22;10710;53.398;-1.514;2023-05-07T08:02:15;17.60;99.90
21104;DHT22;10710;53.398;-1.514;2023-05-07T08:04:59;17.90;99.90
21104;DHT22;10710;53.398;-1.514;2023-05-07T08:07:44;18.10;99.90
21104;DHT22;10710;53.398;-1.514;2023-05-07T08:10:28;18.00;99.90
21104;DHT22;10710;53.398;-1.514;2023-05-07T08:13:13;18.20;99.90
21104;DHT22;10710;53.398;-1.514;2023-05-07T08:15:57;18.30;99.90
21104;DHT22;10710;53.398;-1.514;2023-05-07T08:18:42;18.20;99.90
21104;DHT22;10710;53.398;-1.514;2023-05-07T08:21:26;18.40;99.90
21104;DHT22;10710;53.398;-1.514;2023-05-07T08:24:11;18.40;99.90
21104;DHT22;10710;53.398;-1.514;2023-05-07T08:26:55;18.40;99.90
21104;DHT22;10710;53.398;-1.514;2023-05-07T08:29:40;18.50;99.90
21104;DHT22;10710;53.398;-1.514;2023-05-07T08:32:24;18.70;99.90
21104;DHT22;10710;53.398;-1.514;2023-05-07T08:35:08;18.50;99.90
21104;DHT22;10710;53.398;-1.514;2023-05-07T08:37:53;18.30;99.90
21104;DHT22;10710;53.398;-1.514;2023-05-07T08:40:39;18.50;99.90
21104;DHT22;10710;53.398;-1.514;2023-05-07T08:43:27;18.70;99.90
21104;DHT22;10710;53.398;-1.514;2023-05-07T08:46:13;19.10;99.90
21104;DHT22;10710;53.398;-1.514;2023-05-07T08:49:00;19.40;99.90
21104;DHT22;10710;53.398;-1.514;2023-05-07T08:51:44;19.60;99.90
21104;DHT22;10710;53.398;-1.514;2023-05-07T08:54:29;19.40;99.90
21104;DHT22;10710;53.398;-1.514;2023-05-07T08:57:14;19.30;99.90
21104;DHT22;10710;53.398;-1.514;2023-05-07T08:59:59;19.40;99.90
21104;DHT22;10710;53.398;-1.514;2023-05-07T09:02:44;19.60;99.90
21104;DHT22;10710;53.398;-1.514;2023-05-07T09:05:28;20.10;99.90
21104;DHT22;10710;53.398;-1.514;2023-05-07T09:08:15;19.70;99.90
21104;DHT22;10710;53.398;-1.514;2023-05-07T09:11:00;19.60;99.90
21104;DHT22;10710;53.398;-1.514;2023-05-07T09:13:44;19.50;99.90
21104;DHT22;10710;53.398;-1.514;2023-05-07T09:16:29;19.50;99.90
21104;DHT22;10710;53.398;-1.514;2023-05-07T09:19:14;19.70;99.90
21104;DHT22;10710;53.398;-1.514;2023-05-07T09:22:02;19.50;99.90
21104;DHT22;10710;53.398;-1.514;2023-05-07T09:24:51;19.30;99.90
21104;DHT22;10710;53.398;-1.514;2023-05-07T09:27:36;19.50;99.90
21104;DHT22;10710;53.398;-1.514;2023-05-07T09:30:20;19.30;99.90
21104;DHT22;10710;53.398;-1.514;2023-05-07T09:33:05;19.60;99.90
21104;DHT22;10710;53.398;-1.514;2023-05-07T09:35:54;19.50;99.90
21104;DHT22;10710;53.398;-1.514;2023-05-07T09:38:38;19.10;99.90
21104;DHT22;10710;53.398;-1.514;2023-05-07T09:41:22;19.30;99.90
21104;DHT22;10710;53.398;-1.514;2023-05-07T09:44:07;18.80;99.90
21104;DHT22;10710;53.398;-1.514;2023-05-07T09:46:54;18.40;99.90
21104;DHT22;10710;53.398;-1.514;2023-05-07T09:49:40;18.30;99.90
21104;DHT22;10710;53.398;-1.514;2023-05-07T09:52:26;18.80;99.90
21104;DHT22;10710;53.398;-1.514;2023-05-07T09:55:17;19.20;99.90
21104;DHT22;10710;53.398;-1.514;2023-05-07T09:58:03;19.10;99.90
21104;DHT22;10710;53.398;-1.514;2023-05-07T10:00:50;19.30;99.90
21104;DHT22;10710;53.398;-1.514;2023-05-07T10:03:36;19.50;99.90
21104;DHT22;10710;53.398;-1.514;2023-05-07T10:06:21;19.60;99.90
21104;DHT22;10710;53.398;-1.514;2023-05-07T10:09:09;19.80;99.90
21104;DHT22;10710;53.398;-1.514;2023-05-07T10:11:55;19.80;99.90
21104;DHT22;10710;53.398;-1.514;2023-05-07T10:14:40;20.00;99.90
21104;DHT22;10710;53.398;-1.514;2023-05-07T10:17:25;19.90;99.90
21104;DHT22;10710;53.398;-1.514;2023-05-07T10:20:10;19.20;99.90
21104;DHT22;10710;53.398;-1.514;2023-05-07T10:22:56;19.10;99.90
21104;DHT22;10710;53.398;-1.514;2023-05-07T10:25:41;18.80;99.90
21104;DHT22;10710;53.398;-1.514;2023-05-07T10:28:27;18.90;99.90
21104;DHT22;10710;53.398;-1.514;2023-05-07T10:34:24;19.00;99.90
21104;DHT22;10710;53.398;-1.514;2023-05-07T10:37:10;18.80;99.90
21104;DHT22;10710;53.398;-1.514;2023-05-07T10:39:55;18.70;99.90
21104;DHT22;10710;53.398;-1.514;2023-05-07T10:43:00;18.60;99.90
21104;DHT22;10710;53.398;-1.514;2023-05-07T10:46:09;18.80;99.90
21104;DHT22;10710;53.398;-1.514;2023-05-07T10:51:45;19.20;99.90
21104;DHT22;10710;53.398;-1.514;2023-05-07T10:54:31;18.80;99.90
21104;DHT22;10710;53.398;-1.514;2023-05-07T10:57:36;18.50;99.90
21104;DHT22;10710;53.398;-1.514;2023-05-07T11:03:07;18.30;99.90
21104;DHT22;10710;53.398;-1.514;2023-05-07T11:06:12;18.40;99.90
21104;DHT22;10710;53.398;-1.514;2023-05-07T11:08:58;18.90;99.90
21104;DHT22;10710;53.398;-1.514;2023-05-07T11:11:46;18.90;99.90
21104;DHT22;10710;53.398;-1.514;2023-05-07T11:14:43;19.40;99.90
21104;DHT22;10710;53.398;-1.514;2023-05-07T11:17:28;19.50;99.90
21104;DHT22;10710;53.398;-1.514;2023-05-07T11:20:16;19.30;99.90
21104;DHT22;10710;53.398;-1.514;2023-05-07T11:23:00;19.30;99.90
21104;DHT22;10710;53.398;-1.514;2023-05-07T11:25:45;19.40;99.90
21104;DHT22;10710;53.398;-1.514;2023-05-07T11:28:30;19.70;99.90
21104;DHT22;10710;53.398;-1.514;2023-05-07T11:31:21;19.90;99.90
21104;DHT22;10710;53.398;-1.514;2023-05-07T11:34:06;19.70;99.90
21104;DHT22;10710;53.398;-1.514;2023-05-07T11:36:52;19.70;99.90
21104;DHT22;10710;53.398;-1.514;2023-05-07T11:39:37;19.80;99.90
21104;DHT22;10710;53.398;-1.514;2023-05-07T11:42:40;19.70;99.90
21104;DHT22;10710;53.398;-1.514;2023-05-07T11:45:28;19.30;99.90
21104;DHT22;10710;53.398;-1.514;2023-05-07T11:48:13;19.30;99.90
21104;DHT22;10710;53.398;-1.514;2023-05-07T11:51:01;19.10;99.90
21104;DHT22;10710;53.398;-1.514;2023-05-07T11:53:45;19.20;99.90
21104;DHT22;10710;53.398;-1.514;2023-05-07T11:56:34;19.30;99.90
21104;DHT22;10710;53.398;-1.514;2023-05-07T11:59:21;19.20;99.90
21104;DHT22;10710;53.398;-1.514;2023-05-07T12:02:06;19.20;99.90
21104;DHT22;10710;53.398;-1.514;2023-05-07T12:04:54;19.00;99.90
21104;DHT22;10710;53.398;-1.514;2023-05-07T12:07:39;19.00;99.90
21104;DHT22;10710;53.398;-1.514;2023-05-07T12:10:23;19.20;99.90
21104;DHT22;10710;53.398;-1.514;2023-05-07T12:13:19;19.20;99.90
21104;DHT22;10710;53.398;-1.514;2023-05-07T12:16:05;19.20;99.90
21104;DHT22;10710;53.398;-1.514;2023-05-07T12:18:50;19.20;99.90
21104;DHT22;10710;53.398;-1.514;2023-05-07T12:21:36;19.30;99.90
21104;DHT22;10710;53.398;-1.514;2023-05-07T12:24:21;19.50;99.90
21104;DHT22;10710;53.398;-1.514;2023-05-07T12:27:06;19.40;99.90
21104;DHT22;10710;53.398;-1.514;2023-05-07T12:29:50;19.40;99.90
21104;DHT22;10710;53.398;-1.514;2023-05-07T12:32:36;19.20;99.90
21104;DHT22;10710;53.398;-1.514;2023-05-07T12:35:28;18.80;99.90
21104;DHT22;10710;53.398;-1.514;2023-05-07T12:38:15;19.10;99.90
21104;DHT22;10710;53.398;-1.514;2023-05-07T12:41:01;19.10;99.90
21104;DHT22;10710;53.398;-1.514;2023-05-07T12:43:46;18.90;99.90
21104;DHT22;10710;53.398;-1.514;2023-05-07T12:46:31;19.20;99.90
21104;DHT22;10710;53.398;-1.514;2023-05-07T12:49:16;19.40;99.90
21104;DHT22;10710;53.398;-1.514;2023-05-07T12:52:02;19.70;99.90
21104;DHT22;10710;53.398;-1.514;2023-05-07T12:54:47;19.90;99.90
21104;DHT22;10710;53.398;-1.514;2023-05-07T12:57:38;20.20;99.90
21104;DHT22;10710;53.398;-1.514;2023-05-07T13:00:35;20.30;99.90
21104;DHT22;10710;53.398;-1.514;2023-05-07T13:03:33;20.30;99.90
21104;DHT22;10710;53.398;-1.514;2023-05-07T13:06:19;20.20;99.90
21104;DHT22;10710;53.398;-1.514;2023-05-07T13:09:03;20.40;99.90
21104;DHT22;10710;53.398;-1.514;2023-05-07T13:11:48;20.30;99.90
21104;DHT22;10710;53.398;-1.514;2023-05-07T13:14:33;20.70;99.90
21104;DHT22;10710;53.398;-1.514;2023-05-07T13:17:17;21.10;99.90
21104;DHT22;10710;53.398;-1.514;2023-05-07T13:20:03;21.20;99.90
21104;DHT22;10710;53.398;-1.514;2023-05-07T13:22:47;21.30;99.90
21104;DHT22;10710;53.398;-1.514;2023-05-07T13:25:31;21.20;99.90
21104;DHT22;10710;53.398;-1.514;2023-05-07T13:28:16;21.30;99.90
21104;DHT22;10710;53.398;-1.514;2023-05-07T13:31:00;21.90;99.90
21104;DHT22;10710;53.398;-1.514;2023-05-07T13:33:44;23.20;99.90
21104;DHT22;10710;53.398;-1.514;2023-05-07T13:36:28;24.10;99.90
21104;DHT22;10710;53.398;-1.514;2023-05-07T13:39:13;24.80;99.90
21104;DHT22;10710;53.398;-1.514;2023-05-07T13:41:57;25.60;99.90
21104;DHT22;10710;53.398;-1.514;2023-05-07T13:44:41;25.60;99.90
21104;DHT22;10710;53.398;-1.514;2023-05-07T13:47:27;26.20;99.90
21104;DHT22;10710;53.398;-1.514;2023-05-07T13:50:12;27.00;99.90
21104;DHT22;10710;53.398;-1.514;2023-05-07T13:53:00;28.00;99.90
21104;DHT22;10710;53.398;-1.514;2023-05-07T13:55:45;28.60;99.90
21104;DHT22;10710;53.398;-1.514;2023-05-07T13:58:29;28.60;99.90
21104;DHT22;10710;53.398;-1.514;2023-05-07T14:01:14;28.90;99.90
21104;DHT22;10710;53.398;-1.514;2023-05-07T14:03:58;28.60;99.90
21104;DHT22;10710;53.398;-1.514;2023-05-07T14:06:43;28.50;99.90
21104;DHT22;10710;53.398;-1.514;2023-05-07T14:09:27;27.80;99.90
21104;DHT22;10710;53.398;-1.514;2023-05-07T14:12:12;27.30;99.90
21104;DHT22;10710;53.398;-1.514;2023-05-07T14:14:56;26.40;99.90
21104;DHT22;10710;53.398;-1.514;2023-05-07T14:17:42;25.80;99.90
21104;DHT22;10710;53.398;-1.514;2023-05-07T14:20:26;26.00;99.90
21104;DHT22;10710;53.398;-1.514;2023-05-07T14:23:10;26.40;99.90
21104;DHT22;10710;53.398;-1.514;2023-05-07T14:25:55;27.40;99.90
21104;DHT22;10710;53.398;-1.514;2023-05-07T14:28:41;27.80;99.90
21104;DHT22;10710;53.398;-1.514;2023-05-07T14:31:30;27.30;99.90
21104;DHT22;10710;53.398;-1.514;2023-05-07T14:34:15;28.20;99.90
21104;DHT22;10710;53.398;-1.514;2023-05-07T14:37:00;29.20;99.90
21104;DHT22;10710;53.398;-1.514;2023-05-07T14:39:44;29.40;99.90
21104;DHT22;10710;53.398;-1.514;2023-05-07T14:42:29;27.40;99.90
21104;DHT22;10710;53.398;-1.514;2023-05-07T14:45:14;27.10;99.90
21104;DHT22;10710;53.398;-1.514;2023-05-07T14:47:59;26.40;99.90
21104;DHT22;10710;53.398;-1.514;2023-05-07T14:50:43;26.50;99.90
21104;DHT22;10710;53.398;-1.514;2023-05-07T14:53:30;27.50;99.90
21104;DHT22;10710;53.398;-1.514;2023-05-07T14:56:25;28.20;99.90
21104;DHT22;10710;53.398;-1.514;2023-05-07T14:59:12;28.70;99.90
21104;DHT22;10710;53.398;-1.514;2023-05-07T15:02:09;30.40;99.90
21104;DHT22;10710;53.398;-1.514;2023-05-07T15:05:15;29.80;99.90
21104;DHT22;10710;53.398;-1.514;2023-05-07T15:11:34;28.20;99.90
21104;DHT22;10710;53.398;-1.514;2023-05-07T15:14:19;27.00;99.90
21104;DHT22;10710;53.398;-1.514;2023-05-07T15:17:07;27.20;99.90
21104;DHT22;10710;53.398;-1.514;2023-05-07T15:19:51;27.20;99.90
21104;DHT22;10710;53.398;-1.514;2023-05-07T15:22:36;28.80;99.90
21104;DHT22;10710;53.398;-1.514;2023-05-07T15:25:23;27.90;99.90
21104;DHT22;10710;53.398;-1.514;2023-05-07T15:28:10;26.60;99.90
21104;DHT22;10710;53.398;-1.514;2023-05-07T15:31:00;25.80;99.90
21104;DHT22;10710;53.398;-1.514;2023-05-07T15:33:51;25.20;99.90
21104;DHT22;10710;53.398;-1.514;2023-05-07T15:36:41;24.90;99.90
21104;DHT22;10710;53.398;-1.514;2023-05-07T15:39:59;26.50;99.90
21104;DHT22;10710;53.398;-1.514;2023-05-07T15:42:49;28.60;99.90
21104;DHT22;10710;53.398;-1.514;2023-05-07T15:45:41;30.40;99.90
21104;DHT22;10710;53.398;-1.514;2023-05-07T15:48:26;30.70;99.90
21104;DHT22;10710;53.398;-1.514;2023-05-07T15:55:39;27.60;99.90
21104;DHT22;10710;53.398;-1.514;2023-05-07T16:03:29;28.80;99.90
21104;DHT22;10710;53.398;-1.514;2023-05-07T16:06:39;30.30;99.90
21104;DHT22;10710;53.398;-1.514;2023-05-07T16:09:34;31.40;99.90
21104;DHT22;10710;53.398;-1.514;2023-05-07T16:12:19;32.40;99.90
21104;DHT22;10710;53.398;-1.514;2023-05-07T16:18:14;32.50;99.90
21104;DHT22;10710;53.398;-1.514;2023-05-07T16:21:02;31.60;99.90
21104;DHT22;10710;53.398;-1.514;2023-05-07T16:24:08;31.40;99.90
21104;DHT22;10710;53.398;-1.514;2023-05-07T16:26:56;31.30;99.90
21104;DHT22;10710;53.398;-1.514;2023-05-07T16:29:50;28.40;99.90
21104;DHT22;10710;53.398;-1.514;2023-05-07T16:32:37;26.60;99.90
21104;DHT22;10710;53.398;-1.514;2023-05-07T16:35:23;26.70;99.90
21104;DHT22;10710;53.398;-1.514;2023-05-07T16:38:07;27.00;99.90
21104;DHT22;10710;53.398;-1.514;2023-05-07T16:40:57;28.60;99.90
21104;DHT22;10710;53.398;-1.514;2023-05-07T16:43:42;29.50;99.90
21104;DHT22;10710;53.398;-1.514;2023-05-07T16:46:40;30.10;99.90
21104;DHT22;10710;53.398;-1.514;2023-05-07T16:49:33;30.70;99.90
21104;DHT22;10710;53.398;-1.514;2023-05-07T16:52:20;31.30;99.90
21104;DHT22;10710;53.398;-1.514;2023-05-07T16:55:05;31.80;99.90
21104;DHT22;10710;53.398;-1.514;2023-05-07T16:57:50;32.10;99.90
21104;DHT22;10710;53.398;-1.514;2023-05-07T17:00:35;32.70;99.90
21104;DHT22;10710;53.398;-1.514;2023-05-07T17:03:19;31.70;99.90
21104;DHT22;10710;53.398;-1.514;2023-05-07T17:06:03;31.50;99.90
21104;DHT22;10710;53.398;-1.514;2023-05-07T17:08:48;31.60;99.90
21104;DHT22;10710;53.398;-1.514;2023-05-07T17:11:34;29.40;99.90
21104;DHT22;10710;53.398;-1.514;2023-05-07T17:14:19;28.10;99.90
21104;DHT22;10710;53.398;-1.514;2023-05-07T17:17:04;27.10;99.90
21104;DHT22;10710;53.398;-1.514;2023-05-07T17:19:48;25.60;99.90
21104;DHT22;10710;53.398;-1.514;2023-05-07T17:22:33;25.00;99.90
21104;DHT22;10710;53.398;-1.514;2023-05-07T17:25:17;24.60;99.90
21104;DHT22;10710;53.398;-1.514;2023-05-07T17:28:02;24.20;99.90
21104;DHT22;10710;53.398;-1.514;2023-05-07T17:30:47;24.10;99.90
21104;DHT22;10710;53.398;-1.514;2023-05-07T17:33:32;23.90;99.90
21104;DHT22;10710;53.398;-1.514;2023-05-07T17:36:16;23.50;99.90
21104;DHT22;10710;53.398;-1.514;2023-05-07T17:39:01;23.20;99.90
21104;DHT22;10710;53.398;-1.514;2023-05-07T17:41:45;23.20;99.90
21104;DHT22;10710;53.398;-1.514;2023-05-07T17:44:30;23.20;99.90
21104;DHT22;10710;53.398;-1.514;2023-05-07T17:47:14;23.10;99.90
21104;DHT22;10710;53.398;-1.514;2023-05-07T17:49:59;23.00;99.90
21104;DHT22;10710;53.398;-1.514;2023-05-07T17:52:43;22.90;99.90
21104;DHT22;10710;53.398;-1.514;2023-05-07T17:55:29;22.70;99.90
21104;DHT22;10710;53.398;-1.514;2023-05-07T17:58:13;22.60;99.90
21104;DHT22;10710;53.398;-1.514;2023-05-07T18:00:57;22.40;99.90
21104;DHT22;10710;53.398;-1.514;2023-05-07T18:03:42;22.50;99.90
21104;DHT22;10710;53.398;-1.514;2023-05-07T18:06:27;22.30;99.90
21104;DHT22;10710;53.398;-1.514;2023-05-07T18:09:11;22.20;99.90
21104;DHT22;10710;53.398;-1.514;2023-05-07T18:11:56;21.90;99.90
21104;DHT22;10710;53.398;-1.514;2023-05-07T18:14:40;21.90;99.90
21104;DHT22;10710;53.398;-1.514;2023-05-07T18:17:25;21.90;99.90
21104;DHT22;10710;53.398;-1.514;2023-05-07T18:20:11;21.90;99.90
21104;DHT22;10710;53.398;-1.514;2023-05-07T18:22:56;21.70;99.90
21104;DHT22;10710;53.398;-1.514;2023-05-07T18:25:40;21.60;99.90
21104;DHT22;10710;53.398;-1.514;2023-05-07T18:28:40;21.60;99.90
21104;DHT22;10710;53.398;-1.514;2023-05-07T18:31:35;21.60;99.90
21104;DHT22;10710;53.398;-1.514;2023-05-07T18:34:19;21.50;99.90
21104;DHT22;10710;53.398;-1.514;2023-05-07T18:37:04;21.40;99.90
21104;DHT22;10710;53.398;-1.514;2023-05-07T18:39:48;21.40;99.90
21104;DHT22;10710;53.398;-1.514;2023-05-07T18:42:33;21.10;99.90
21104;DHT22;10710;53.398;-1.514;2023-05-07T18:45:23;20.90;99.90
21104;DHT22;10710;53.398;-1.514;2023-05-07T18:48:18;20.80;99.90
21104;DHT22;10710;53.398;-1.514;2023-05-07T18:51:06;20.70;99.90
21104;DHT22;10710;53.398;-1.514;2023-05-07T18:53:58;20.90;99.90
21104;DHT22;10710;53.398;-1.514;2023-05-07T18:56:43;20.90;99.90
21104;DHT22;10710;53.398;-1.514;2023-05-07T18:59:30;20.80;99.90
21104;DHT22;10710;53.398;-1.514;2023-05-07T19:02:17;20.70;99.90
21104;DHT22;10710;53.398;-1.514;2023-05-07T19:05:02;20.70;99.90
21104;DHT22;10710;53.398;-1.514;2023-05-07T19:07:47;20.60;99.90
21104;DHT22;10710;53.398;-1.514;2023-05-07T19:10:48;20.70;99.90
21104;DHT22;10710;53.398;-1.514;2023-05-07T19:13:33;20.50;99.90
21104;DHT22;10710;53.398;-1.514;2023-05-07T19:16:23;20.50;99.90
21104;DHT22;10710;53.398;-1.514;2023-05-07T19:19:11;20.40;99.90
21104;DHT22;10710;53.398;-1.514;2023-05-07T19:22:20;20.30;99.90
21104;DHT22;10710;53.398;-1.514;2023-05-07T19:25:08;20.10;99.90
21104;DHT22;10710;53.398;-1.514;2023-05-07T19:27:56;19.90;99.90
21104;DHT22;10710;53.398;-1.514;2023-05-07T19:30:43;19.70;99.90
21104;DHT22;10710;53.398;-1.514;2023-05-07T19:33:33;19.50;99.90
21104;DHT22;10710;53.398;-1.514;2023-05-07T19:36:19;19.30;99.90
21104;DHT22;10710;53.398;-1.514;2023-05-07T19:39:22;19.30;99.90
21104;DHT22;10710;53.398;-1.514;2023-05-07T19:43:01;19.10;99.90
21104;DHT22;10710;53.398;-1.514;2023-05-07T19:45:55;18.80;99.90
21104;DHT22;10710;53.398;-1.514;2023-05-07T19:48:42;18.50;99.90
21104;DHT22;10710;53.398;-1.514;2023-05-07T19:51:39;18.30;99.90
21104;DHT22;10710;53.398;-1.514;2023-05-07T19:54:29;18.10;99.90
